Other Surface Observations
Issued by NWS Great Falls, MT

Home | Current Version | Previous Version | Text Only | Print | Product List | Glossary On
Versions: 1 2 3 4 5 6 7 8 9 10 11 12 13 14 15 16 17 18 19 20 21 22 23 24 25 26 27 28 29 30 31 32 33 34 35 36 37 38 39 40 41 42 43 44 45 46 47 48 49 50
000
SXUS55 KTFX 201342
OSOTFX

AREA AWOS OBSERVATIONS
NATIONAL WEATHER SERVICE GREAT FALLS MT
0641 AM MST Tue Nov 20 2018

METAR KCII 201340Z AUTO 21006KT 10SM 02/M04 A3002 RMK A01
METAR K6S0 201340Z AUTO 25019G27KT 10SM CLR 03/M07 A3010 RMK A01
METAR K6S8 201340Z AUTO 21004KT 10SM M01/M06 A3012 RMK A01
METAR K7S6 201340Z AUTO 18008G15KT 10SM 01/M06 A3013 RMK A01
METAR K7S0 201340Z AUTO 23003KT 5SM BR M03/M03 A3021 RMK A01


USA.gov is the U.S. government's official web portal to all federal, state and local government web resources and services.